Airfield :







YOU CAN JOIN US ON...

 
LOGIN :

Register | Disclaimer

   EN    FR    IT 

 









Legend :    VFR   Marginal VFR   IFR   Intensive IFR   Very Intensive IFR
Visi :
Ceiling :
>= 8 km
>= 3000ft
5 to 8 km
1000 to 3000 ft
1500m to 5 km
500 to 1000 ft
800 to 1500m
200 to 500 ft
< 800m
< 200 ft
Symbols :   Thunderstorms  Fog  Heavy snow  Heavy precipitations  Wind > 20 kt







- Airport Elevation : 522 ft
- IATA code : YBG


CYBG - CFB Bagotville

CURRENT METAR :
  • 190700Z 28006KT 25SM SCT240 M14/M17 A3027 RMK CI4 SLP264

EXPIRED METARs :
  • 190600Z 27005KT 25SM SCT140 M13/M17 A3027 RMK AC3 SLP264
  • 190500Z 26006KT 25SM SCT140 M13/M16 A3026 RMK AC4 SLP261

TAF TAF CYBG
Valid from the 19 at 06:00 until the 20 at 06:00 UTC


190530Z 1906/2006 27008KT P6SM SCT140
FM190900 27008KT P6SM SCT030 SCT140
TEMPO 1909/1914 BKN030
BECMG 1914/1916 FEW030
FM200300 VRB03KT P6SM SCT040 SCT200
BECMG 2004/2006 18005KT RMK NXT FCST BY 191200Z
CZUL FIR / North America



MET'MAP, your aeronautical weather chart ! - Copyright ORBIFLY December 2007 - Disclaimer

ORBIFLY MET'MAP TEAM :

Programming & Development : Alexandra Zaïnal
Concept & Development : Baudouin d'Aumeries
Co-Development & Prog : Marc-Olivier Méhu
Technical & hardware support : Manuel Goepfert

Contact : metmap@orbifly.com




SOURCES & CREDITS :

   NOAA